Schneifelwetter: Wetterstation Hallschlag, 537 m . NN
Wetterdaten: Sonntag, 02.08.2009
Datum Zeit Temp. A. Feuchte A. Luftdruck Regen Wind Richtung Richtung Sonnenschein Helligkeit T Regen Taupunkt Windchill
02.08.2009 00:00 14,3 C 79 % 1009 hPa 0,0 l/m 0,0 km/h (0 Bft) W-SW 255 0 min 0 lux 0,00 min 10,7 C 14,3 C
02.08.2009 00:15 13,8 C 79 % 1009 hPa 0,0 l/m 0,0 km/h (0 Bft) W-SW 255 0 min 0 lux 0,00 min 10,2 C 13,8 C
02.08.2009 00:30 13,5 C 80 % 1009 hPa 0,0 l/m 0,0 km/h (0 Bft) W-SW 255 0 min 0 lux 0,00 min 10,1 C 13,5 C
02.08.2009 00:45 13,3 C 81 % 1009 hPa 0,0 l/m 0,0 km/h (0 Bft) W-SW 255 0 min 0 lux 0,00 min 10,1 C 13,3 C
02.08.2009 01:00 13,2 C 82 % 1009 hPa 0,0 l/m 0,0 km/h (0 Bft) W-SW 255 0 min 0 lux 0,00 min 10,2 C 13,2 C
02.08.2009 01:15 13,1 C 82 % 1009 hPa 0,0 l/m 0,0 km/h (0 Bft) W-SW 255 0 min 0 lux 0,00 min 10,1 C 13,1 C
02.08.2009 01:30 13,1 C 83 % 1009 hPa 0,0 l/m 0,0 km/h (0 Bft) W-SW 255 0 min 0 lux 0,00 min 10,3 C 13,1 C
02.08.2009 01:45 13,2 C 83 % 1009 hPa 0,0 l/m 5,0 km/h (1 Bft) W-SW 255 0 min 0 lux 0,00 min 10,4 C 13,2 C
02.08.2009 02:00 13,2 C 83 % 1009 hPa 0,0 l/m 0,0 km/h (0 Bft) W-SW 250 0 min 0 lux 0,00 min 10,4 C 13,2 C
02.08.2009 02:15 13,4 C 84 % 1008 hPa 0,0 l/m 0,0 km/h (0 Bft) W-SW 250 0 min 0 lux 0,00 min 10,8 C 13,4 C
02.08.2009 02:30 13,5 C 84 % 1008 hPa 0,0 l/m 0,0 km/h (0 Bft) W-SW 250 0 min 0 lux 0,00 min 10,8 C 13,5 C
02.08.2009 02:45 13,8 C 87 % 1009 hPa 0,0 l/m 12,0 km/h (2 Bft) W22.5 270 0 min 0 lux 0,00 min 11,7 C 10,9 C
02.08.2009 03:00 14,0 C 87 % 1009 hPa 0,0 l/m 6,5 km/h (2 Bft) NO22.5 45 0 min 0 lux 0,00 min 11,9 C 14,0 C
02.08.2009 03:15 14,1 C 86 % 1008 hPa 0,0 l/m 5,1 km/h (1 Bft) N-NO22.5 25 0 min 0 lux 0,00 min 11,8 C 14,1 C
02.08.2009 03:30 14,0 C 86 % 1008 hPa 0,0 l/m 0,0 km/h (0 Bft) N 350 0 min 0 lux 0,00 min 11,7 C 14,0 C
02.08.2009 03:45 13,8 C 86 % 1008 hPa 0,0 l/m 0,0 km/h (0 Bft) N 350 0 min 0 lux 0,00 min 11,5 C 13,8 C
02.08.2009 04:00 13,8 C 86 % 1008 hPa 0,0 l/m 1,5 km/h (1 Bft) N-NW 345 0 min 0 lux 0,00 min 11,5 C 13,8 C
02.08.2009 04:15 13,9 C 87 % 1007 hPa 0,0 l/m 0,6 km/h (0 Bft) NW22.5 320 0 min 0 lux 0,00 min 11,8 C 13,9 C
02.08.2009 04:30 13,9 C 87 % 1007 hPa 0,0 l/m 0,7 km/h (0 Bft) O45 95 0 min 0 lux 0,00 min 11,8 C 13,9 C
02.08.2009 04:45 13,9 C 88 % 1007 hPa 0,0 l/m 2,4 km/h (1 Bft) N-NO22.5 20 0 min 0 lux 0,00 min 11,9 C 13,9 C
02.08.2009 05:00 14,0 C 88 % 1007 hPa 0,0 l/m 0,0 km/h (0 Bft) N 10 0 min 0 lux 0,00 min 12,0 C 14,0 C
02.08.2009 05:15 14,0 C 88 % 1007 hPa 0,0 l/m 7,4 km/h (2 Bft) W-NW22.5 295 0 min 0 lux 0,00 min 12,0 C 13,4 C
02.08.2009 05:30 14,0 C 89 % 1007 hPa 0,0 l/m 13,0 km/h (3 Bft) W22.5 270 0 min 0 lux 0,00 min 12,2 C 10,7 C
02.08.2009 05:45 14,6 C 89 % 1008 hPa 0,0 l/m 9,0 km/h (2 Bft) W22.5 275 0 min 0 lux 0,00 min 12,8 C 13,2 C
02.08.2009 06:00 15,0 C 88 % 1008 hPa 0,0 l/m 10,0 km/h (2 Bft) N45 5 0 min 71 lux 0,00 min 13,0 C 13,1 C
02.08.2009 06:15 15,3 C 87 % 1008 hPa 0,0 l/m 10,4 km/h (2 Bft) W-SW67.5 240 0 min 142 lux 0,00 min 13,1 C 13,3 C
02.08.2009 06:30 15,3 C 87 % 1007 hPa 0,0 l/m 7,3 km/h (2 Bft) N22.5 10 0 min 784 lux 0,00 min 13,1 C 14,8 C
02.08.2009 06:45 15,2 C 86 % 1007 hPa 0,0 l/m 10,6 km/h (2 Bft) NO 35 0 min 1,50 klux 0,00 min 12,9 C 13,1 C
02.08.2009 07:00 15,2 C 86 % 1007 hPa 0,0 l/m 5,6 km/h (1 Bft) N45 5 0 min 1,69 klux 0,00 min 12,9 C 15,2 C
02.08.2009 07:15 15,2 C 86 % 1007 hPa 0,0 l/m 0,0 km/h (0 Bft) N 10 0 min 3,67 klux 0,00 min 12,9 C 15,2 C
02.08.2009 07:30 15,3 C 87 % 1008 hPa 0,0 l/m 7,2 km/h (2 Bft) N-NW45 330 0 min 4,03 klux 0,00 min 13,1 C 14,9 C
02.08.2009 07:45 15,3 C 87 % 1008 hPa 0,0 l/m 10,9 km/h (2 Bft) W22.5 270 0 min 1,63 klux 0,00 min 13,1 C 13,1 C
02.08.2009 08:00 15,1 C 89 % 1009 hPa 1,8 l/m 28,6 km/h (4 Bft) W22.5 260 0 min 1,14 klux 15,00 min 13,3 C 8,1 C
02.08.2009 08:15 14,8 C 89 % 1009 hPa 2,1 l/m 15,5 km/h (3 Bft) W22.5 260 0 min 6,06 klux 15,00 min 13,0 C 10,8 C
02.08.2009 08:30 15,0 C 89 % 1009 hPa 0,3 l/m 5,7 km/h (1 Bft) W-SW22.5 255 0 min 8,75 klux 15,00 min 13,2 C 15,0 C
02.08.2009 08:45 15,2 C 90 % 1009 hPa 0,0 l/m 9,2 km/h (2 Bft) W-SW 255 0 min 15,3 klux 0,00 min 13,6 C 13,7 C
02.08.2009 09:00 15,8 C 90 % 1009 hPa 0,0 l/m 10,5 km/h (2 Bft) W-SW22.5 255 0 min 26,8 klux 0,00 min 14,2 C 13,8 C
02.08.2009 09:15 16,1 C 88 % 1009 hPa 0,0 l/m 12,2 km/h (2 Bft) W-SW 250 0 min 15,6 klux 0,00 min 14,1 C 13,5 C
02.08.2009 09:30 16,2 C 88 % 1009 hPa 0,0 l/m 12,1 km/h (2 Bft) W22.5 260 0 min 20,1 klux 0,00 min 14,2 C 13,6 C
02.08.2009 09:45 16,4 C 88 % 1009 hPa 0,0 l/m 10,2 km/h (2 Bft) W-SW 255 0 min 23,6 klux 0,00 min 14,4 C 14,6 C
02.08.2009 10:00 16,3 C 87 % 1009 hPa 0,0 l/m 10,3 km/h (2 Bft) W-SW22.5 245 0 min 13,7 klux 0,00 min 14,1 C 14,4 C
02.08.2009 10:15 16,4 C 87 % 1009 hPa 0,0 l/m 8,6 km/h (2 Bft) W-SW 240 0 min 15,9 klux 0,00 min 14,2 C 15,3 C
02.08.2009 10:30 16,8 C 87 % 1009 hPa 0,0 l/m 9,6 km/h (2 Bft) S45 190 0 min 24,5 klux 0,00 min 14,6 C 15,3 C
02.08.2009 10:45 16,6 C 87 % 1010 hPa 0,0 l/m 17,8 km/h (3 Bft) SW45 220 0 min 19,0 klux 0,00 min 14,4 C 12,4 C
02.08.2009 11:00 16,8 C 87 % 1009 hPa 0,0 l/m 16,2 km/h (3 Bft) SW45 220 0 min 17,2 klux 0,00 min 14,6 C 13,0 C
02.08.2009 11:15 16,8 C 87 % 1010 hPa 0,0 l/m 19,2 km/h (3 Bft) SW45 220 0 min 20,8 klux 0,00 min 14,6 C 12,3 C
02.08.2009 11:30 17,1 C 87 % 1010 hPa 0,0 l/m 23,0 km/h (4 Bft) SW45 230 0 min 35,7 klux 0,00 min 14,9 C 11,8 C
02.08.2009 11:45 16,8 C 87 % 1010 hPa 0,0 l/m 22,5 km/h (4 Bft) SW45 235 0 min 9,9 klux 0,00 min 14,6 C 11,5 C
02.08.2009 12:00 16,6 C 89 % 1010 hPa 0,0 l/m 25,3 km/h (4 Bft) W-SW45 240 0 min 32,8 klux 0,00 min 14,8 C 10,7 C
02.08.2009 12:15 17,4 C 88 % 1010 hPa 0,0 l/m 20,7 km/h (4 Bft) SW45 225 0 min 42,7 klux 0,00 min 15,4 C 12,7 C
02.08.2009 12:30 17,8 C 86 % 1010 hPa 0,3 l/m 32,6 km/h (5 Bft) W-SW45 250 15 min 63,9 klux 15,00 min 15,4 C 11,3 C
02.08.2009 12:45 18,1 C 86 % 1010 hPa 0,0 l/m 29,3 km/h (5 Bft) W22.5 265 15 min 46,8 klux 0,00 min 15,7 C 12,1 C
02.08.2009 13:00 18,2 C 83 % 1010 hPa 0,0 l/m 27,0 km/h (4 Bft) W-SW45 245 0 min 41,5 klux 0,00 min 15,3 C 12,6 C
02.08.2009 13:15 18,2 C 83 % 1010 hPa 0,0 l/m 25,9 km/h (4 Bft) SW45 235 0 min 39,3 klux 0,00 min 15,3 C 12,8 C
02.08.2009 13:30 18,0 C 83 % 1010 hPa 0,6 l/m 25,8 km/h (4 Bft) W-SW45 255 0 min 33,0 klux 15,00 min 15,1 C 12,5 C
02.08.2009 13:45 17,5 C 84 % 1010 hPa 0,0 l/m 21,0 km/h (4 Bft) W22.5 265 0 min 30,5 klux 0,00 min 14,8 C 12,8 C
02.08.2009 14:00 17,0 C 85 % 1011 hPa 0,3 l/m 22,8 km/h (4 Bft) W22.5 260 0 min 11,3 klux 15,00 min 14,5 C 11,7 C
02.08.2009 14:15 17,0 C 86 % 1011 hPa 0,0 l/m 19,1 km/h (3 Bft) W22.5 260 0 min 30,9 klux 0,00 min 14,6 C 12,5 C
02.08.2009 14:30 17,2 C 85 % 1011 hPa 0,0 l/m 24,8 km/h (4 Bft) W45 265 0 min 36,8 klux 0,00 min 14,7 C 11,6 C
02.08.2009 14:45 17,2 C 85 % 1011 hPa 0,3 l/m 22,8 km/h (4 Bft) W22.5 270 0 min 44,8 klux 15,00 min 14,7 C 12,0 C
02.08.2009 15:00 17,5 C 83 % 1011 hPa 0,0 l/m 25,0 km/h (4 Bft) W22.5 270 0 min 44,5 klux 0,00 min 14,6 C 12,0 C
02.08.2009 15:15 17,1 C 84 % 1012 hPa 0,0 l/m 19,5 km/h (3 Bft) W45 265 0 min 23,8 klux 0,00 min 14,4 C 12,6 C
02.08.2009 15:30 17,2 C 86 % 1012 hPa 0,0 l/m 16,8 km/h (3 Bft) W22.5 270 0 min 34,9 klux 0,00 min 14,8 C 13,4 C
02.08.2009 15:45 17,2 C 85 % 1012 hPa 0,0 l/m 24,3 km/h (4 Bft) W22.5 270 0 min 29,6 klux 0,00 min 14,7 C 11,7 C
02.08.2009 16:00 17,4 C 85 % 1012 hPa 0,0 l/m 20,5 km/h (4 Bft) W22.5 270 0 min 34,6 klux 0,00 min 14,8 C 12,7 C
02.08.2009 16:16 17,6 C 84 % 1012 hPa 0,0 l/m 22,6 km/h (4 Bft) W45 265 0 min 34,8 klux 0,00 min 14,9 C 12,6 C
02.08.2009 16:30 18,2 C 83 % 1012 hPa 0,0 l/m 21,0 km/h (4 Bft) W22.5 265 14 min 58,8 klux 0,00 min 15,3 C 13,7 C
02.08.2009 16:45 18,4 C 80 % 1012 hPa 0,0 l/m 22,9 km/h (4 Bft) W22.5 260 15 min 60,0 klux 0,00 min 14,9 C 13,6 C
02.08.2009 17:00 17,4 C 81 % 1012 hPa 0,0 l/m 17,1 km/h (3 Bft) W67.5 275 0 min 20,4 klux 0,00 min 14,1 C 13,5 C
02.08.2009 17:15 16,9 C 82 % 1013 hPa 0,0 l/m 19,5 km/h (3 Bft) W-NW45 285 0 min 30,2 klux 0,00 min 13,8 C 12,3 C
02.08.2009 17:30 16,6 C 83 % 1013 hPa 0,0 l/m 15,7 km/h (3 Bft) W22.5 275 0 min 28,0 klux 0,00 min 13,7 C 12,9 C
02.08.2009 17:45 16,1 C 84 % 1013 hPa 0,0 l/m 16,1 km/h (3 Bft) W22.5 275 0 min 13,3 klux 0,00 min 13,4 C 12,2 C
02.08.2009 18:00 15,4 C 84 % 1013 hPa 0,0 l/m 19,5 km/h (3 Bft) W-NW45 285 0 min 7,98 klux 0,00 min 12,7 C 10,4 C
02.08.2009 18:15 15,0 C 84 % 1013 hPa 0,0 l/m 16,5 km/h (3 Bft) W-NW22.5 290 0 min 15,7 klux 0,00 min 12,3 C 10,7 C
02.08.2009 18:30 15,2 C 84 % 1013 hPa 0,0 l/m 14,6 km/h (3 Bft) W45 275 0 min 19,3 klux 0,00 min 12,5 C 11,6 C
02.08.2009 18:45 14,8 C 85 % 1013 hPa 0,0 l/m 13,5 km/h (3 Bft) NW67.5 305 0 min 5,80 klux 0,00 min 12,3 C 11,5 C
02.08.2009 19:00 14,6 C 85 % 1014 hPa 0,0 l/m 9,9 km/h (2 Bft) W 275 0 min 6,88 klux 0,00 min 12,1 C 12,7 C
02.08.2009 19:15 14,4 C 85 % 1014 hPa 0,0 l/m 6,8 km/h (2 Bft) W 275 0 min 9,5 klux 0,00 min 11,9 C 14,2 C
02.08.2009 19:30 14,3 C 84 % 1014 hPa 0,0 l/m 10,8 km/h (2 Bft) W22.5 265 0 min 5,96 klux 0,00 min 11,6 C 12,0 C
02.08.2009 19:45 14,1 C 83 % 1014 hPa 0,0 l/m 11,6 km/h (2 Bft) W 260 0 min 5,32 klux 0,00 min 11,3 C 11,4 C
02.08.2009 20:00 14,1 C 83 % 1014 hPa 0,0 l/m 0,0 km/h (0 Bft) W 260 0 min 5,95 klux 0,00 min 11,3 C 14,1 C
02.08.2009 20:15 14,0 C 82 % 1014 hPa 0,0 l/m 0,4 km/h (0 Bft) W 260 0 min 6,25 klux 0,00 min 11,0 C 14,0 C
02.08.2009 20:30 14,0 C 82 % 1014 hPa 0,0 l/m 0,4 km/h (0 Bft) W 260 0 min 3,95 klux 0,00 min 11,0 C 14,0 C
02.08.2009 20:45 13,8 C 83 % 1014 hPa 0,0 l/m 3,0 km/h (1 Bft) W 260 0 min 3,51 klux 0,00 min 11,0 C 13,8 C
02.08.2009 21:00 13,6 C 83 % 1014 hPa 0,0 l/m 5,7 km/h (1 Bft) W 260 0 min 1,72 klux 0,00 min 10,8 C 13,6 C
02.08.2009 21:15 13,4 C 84 % 1014 hPa 0,0 l/m 0,0 km/h (0 Bft) W 260 0 min 705 lux 0,00 min 10,8 C 13,4 C
02.08.2009 21:30 13,2 C 85 % 1014 hPa 0,0 l/m 0,0 km/h (0 Bft) W 260 0 min 154 lux 0,00 min 10,7 C 13,2 C
02.08.2009 21:46 13,1 C 86 % 1014 hPa 0,0 l/m 2,4 km/h (1 Bft) W 260 0 min 32 lux 0,00 min 10,8 C 13,1 C
02.08.2009 22:00 12,9 C 86 % 1014 hPa 0,0 l/m 0,6 km/h (0 Bft) W 260 0 min 4 lux 0,00 min 10,6 C 12,9 C
02.08.2009 22:15 12,8 C 87 % 1015 hPa 0,0 l/m 0,0 km/h (0 Bft) W 260 0 min 0 lux 0,00 min 10,7 C 12,8 C
02.08.2009 22:30 12,6 C 87 % 1015 hPa 0,0 l/m 0,0 km/h (0 Bft) W 260 0 min 0 lux 0,00 min 10,5 C 12,6 C
02.08.2009 22:45 12,6 C 88 % 1015 hPa 0,0 l/m 0,0 km/h (0 Bft) W 260 0 min 0 lux 0,00 min 10,7 C 12,6 C
02.08.2009 23:00 12,5 C 88 % 1015 hPa 0,0 l/m 0,0 km/h (0 Bft) W 260 0 min 0 lux 0,00 min 10,6 C 12,5 C
02.08.2009 23:15 12,3 C 89 % 1015 hPa 0,0 l/m 0,0 km/h (0 Bft) W 260 0 min 0 lux 0,00 min 10,5 C 12,3 C
02.08.2009 23:30 12,3 C 89 % 1015 hPa 0,0 l/m 0,0 km/h (0 Bft) W 260 0 min 0 lux 0,00 min 10,5 C 12,3 C
02.08.2009 23:45 12,4 C 90 % 1015 hPa 0,0 l/m 0,0 km/h (0 Bft) W 260 0 min 0 lux 0,00 min 10,8 C 12,4 C
_ Min-Zeit 23:15 00:00 04:15 - 00:00 - - - - - 01:15 08:00
Minimum _ 12,3 C 79 % 1007 hPa - 0,0 km/h (0 Bft) - - - - - 10,1 C 8,1 C
_ Max-Zeit 16:45 08:45 22:15 08:15 12:30 - - 12:30 12:30 08:00 12:45 10:15
Maximum _ 18,4 C 90 % 1015 hPa 2,1 l/m 32,6 km/h
W-SW (5 Bft)
- - 15 min 63,9 klux 15,00 min 15,7 C 15,3 C
Durchschnitt _ 15,2 C 85 % 1011 hPa #5,7 l/m 10,5 km/h (2 Bft) W - #59 min. 13,1 klux #1:45 h 12,7 C 13,0 C